Time;durP1;ratioP1;P1;durP2;ratioP2;P2;SDS_P1;SDS_P2;PMS_P1;PMS_P2;Temp;Humidity;BMP_temperature;BMP_pressure;BME280_temperature;BME280_humidity;BME280_pressure;Samples;Min_cycle;Max_cycle;Signal;HPM_P1;HPM_P2
2022/09/14 00:00:46;;;;;;;;;5.25;5.25;;;;;24.12;66.05;100163.72;4882238;29;45536;-66
2022/09/14 00:03:13;;;;;;;;;5.50;5.50;;;;;24.05;66.17;100151.72;4903181;29;45451;-66
2022/09/14 00:05:38;;;;;;;;;5.75;4.75;;;;;24.08;66.30;100151.44;4903096;29;45341;-66
2022/09/14 00:08:04;;;;;;;;;6.75;6.25;;;;;24.00;65.85;100146.72;4903876;29;45380;-66
2022/09/14 00:10:29;;;;;;;;;6.75;4.75;;;;;24.01;65.74;100145.72;4902656;29;45577;-66
2022/09/14 00:12:55;;;;;;;;;6.25;5.00;;;;;23.99;66.04;100133.25;4903591;29;46288;-66
2022/09/14 00:15:20;;;;;;;;;4.50;4.50;;;;;23.98;66.08;100140.56;4902997;29;45324;-66
2022/09/14 00:17:46;;;;;;;;;6.25;5.00;;;;;24.01;66.18;100134.81;4903802;29;45511;-66
2022/09/14 00:20:11;;;;;;;;;4.75;4.75;;;;;23.97;66.04;100118.91;4901341;29;45458;-66
2022/09/14 00:22:37;;;;;;;;;5.75;5.00;;;;;24.01;65.86;100123.06;4884318;29;47491;-66
2022/09/14 00:25:02;;;;;;;;;4.25;4.25;;;;;24.03;66.36;100121.03;4900753;29;45312;-66
2022/09/14 00:27:28;;;;;;;;;6.00;5.00;;;;;24.00;66.08;100121.34;4881200;29;45587;-66
2022/09/14 00:29:53;;;;;;;;;7.00;4.75;;;;;23.93;66.12;100104.72;4903551;29;45517;-66
2022/09/14 00:32:18;;;;;;;;;4.75;4.25;;;;;23.88;66.31;100093.44;4903619;29;45523;-66
2022/09/14 00:34:44;;;;;;;;;6.25;5.00;;;;;23.96;66.12;100112.63;4902521;29;45540;-66
2022/09/14 00:37:10;;;;;;;;;5.25;4.50;;;;;23.98;66.63;100105.13;4903803;29;45392;-66
2022/09/14 00:39:36;;;;;;;;;4.00;4.00;;;;;23.94;66.69;100100.13;4903783;29;45377;-66
2022/09/14 00:42:03;;;;;;;;;3.00;3.00;;;;;23.90;66.18;100088.69;4902963;29;46295;-67
2022/09/14 00:44:29;;;;;;;;;5.00;4.75;;;;;23.95;66.83;100088.22;4901573;29;45265;-66
2022/09/14 00:46:59;;;;;;;;;6.50;6.50;;;;;23.93;66.53;100082.94;4887709;29;45356;-67
2022/09/14 00:49:34;;;;;;;;;4.00;4.00;;;;;23.85;66.48;100066.47;4903580;29;45574;-66
2022/09/14 00:52:24;;;;;;;;;4.75;3.00;;;;;23.86;66.34;100063.59;4899484;29;45406;-66
2022/09/14 00:54:54;;;;;;;;;3.75;3.75;;;;;23.88;66.86;100060.72;4901497;29;45597;-66
2022/09/14 00:57:21;;;;;;;;;6.00;5.50;;;;;23.85;66.90;100058.31;4903122;29;45694;-66
2022/09/14 00:59:49;;;;;;;;;1.75;1.75;;;;;23.88;67.00;100060.72;4903126;29;45483;-66
2022/09/14 01:02:17;;;;;;;;;4.50;4.00;;;;;23.81;66.88;100037.81;4903266;29;45504;-66
2022/09/14 01:04:43;;;;;;;;;5.00;5.00;;;;;23.87;66.75;100042.66;4895299;29;45547;-66
2022/09/14 01:07:21;;;;;;;;;5.00;5.00;;;;;23.87;66.77;100045.38;4902154;29;45610;-66
2022/09/14 02:06:14;;;;;;;;;5.25;3.50;;;;;23.61;68.42;100027.00;4895510;29;68894;-66
2022/09/14 02:08:40;;;;;;;;;4.75;3.00;;;;;23.58;68.36;100027.28;4906449;28;45438;-66
2022/09/14 02:11:05;;;;;;;;;3.50;3.50;;;;;23.54;68.46;100016.84;4897401;28;46075;-66
2022/09/14 02:13:31;;;;;;;;;5.50;5.25;;;;;23.54;68.75;100011.41;4899407;29;45381;-66
2022/09/14 02:15:56;;;;;;;;;2.50;2.50;;;;;23.54;68.46;100014.13;4902398;29;45323;-66
2022/09/14 02:18:22;;;;;;;;;5.50;4.25;;;;;23.49;68.76;100009.16;4902061;29;45417;-66
2022/09/14 02:21:18;;;;;;;;;4.25;3.25;;;;;23.49;68.69;100015.44;4901419;29;45415;-66
2022/09/14 02:23:45;;;;;;;;;6.00;6.00;;;;;23.45;68.66;100011.28;4885619;29;45451;-66
2022/09/14 02:26:11;;;;;;;;;5.00;4.50;;;;;23.43;68.69;100021.50;4902199;28;45594;-66
2022/09/14 02:28:36;;;;;;;;;6.25;5.50;;;;;23.45;68.76;100021.34;4901832;29;45332;-66
2022/09/14 02:31:18;;;;;;;;;5.00;5.00;;;;;23.44;68.23;100028.66;4902093;29;46443;-66
2022/09/14 02:33:55;;;;;;;;;3.00;3.00;;;;;23.47;68.60;100038.38;4898101;29;45548;-66
2022/09/14 02:36:29;;;;;;;;;2.75;2.75;;;;;23.45;68.68;100037.69;4884891;29;45387;-66
2022/09/14 02:39:23;;;;;;;;;5.00;5.00;;;;;23.46;68.85;100028.53;4909470;28;45378;-66
2022/09/14 02:42:17;;;;;;;;;5.25;3.75;;;;;23.44;68.50;100027.81;4900451;29;46229;-66
2022/09/14 02:45:02;;;;;;;;;4.25;4.00;;;;;23.41;69.02;100028.97;4899583;29;45589;-66
2022/09/14 02:47:42;;;;;;;;;6.00;5.25;;;;;23.41;68.56;100044.44;4903379;29;45472;-66
2022/09/14 02:50:20;;;;;;;;;4.75;4.25;;;;;23.39;68.82;100036.44;4888172;29;45491;-66
2022/09/14 02:52:54;;;;;;;;;5.25;5.25;;;;;23.39;69.01;100038.28;4902340;29;45348;-66
2022/09/14 02:55:23;;;;;;;;;6.00;4.75;;;;;23.36;68.83;100034.00;4902460;29;45595;-66
2022/09/14 02:58:02;;;;;;;;;6.00;5.00;;;;;23.35;68.94;100028.69;4904668;29;45674;-66
2022/09/14 03:00:30;;;;;;;;;6.00;5.00;;;;;23.29;68.88;100020.13;4887884;29;45494;-66
2022/09/14 03:02:56;;;;;;;;;3.50;3.50;;;;;23.30;69.31;100030.03;4901188;28;46226;-66
2022/09/14 03:05:21;;;;;;;;;4.25;4.25;;;;;23.28;68.64;100033.88;4902178;29;45715;-66
2022/09/14 03:07:46;;;;;;;;;5.00;5.00;;;;;23.24;68.91;100036.06;4904574;29;45691;-66
2022/09/14 03:10:12;;;;;;;;;5.00;4.00;;;;;23.30;68.90;100037.31;4904855;29;45419;-66
2022/09/14 03:12:38;;;;;;;;;5.00;5.00;;;;;23.26;69.15;100036.75;4900705;28;45461;-66
2022/09/14 03:15:05;;;;;;;;;4.75;3.00;;;;;23.31;68.86;100042.63;4903571;29;45511;-66
2022/09/14 03:17:30;;;;;;;;;4.50;4.50;;;;;23.31;68.72;100041.75;4904732;29;45378;-66
2022/09/14 03:19:55;;;;;;;;;4.25;4.00;;;;;23.30;68.69;100023.69;4904518;29;45544;-66
2022/09/14 03:22:21;;;;;;;;;5.50;4.50;;;;;23.27;68.40;100019.44;4903532;29;46010;-66
2022/09/14 03:24:46;;;;;;;;;4.50;4.50;;;;;23.33;68.56;100028.84;4901957;29;45399;-66
2022/09/14 03:27:12;;;;;;;;;5.25;5.25;;;;;23.31;68.38;100030.88;4902281;28;45390;-66
2022/09/14 03:29:37;;;;;;;;;5.00;5.00;;;;;23.29;68.51;100031.03;4904565;29;45328;-66
2022/09/14 03:32:02;;;;;;;;;6.25;5.00;;;;;23.29;68.59;100033.75;4902355;29;46476;-66
2022/09/14 03:34:28;;;;;;;;;5.25;5.00;;;;;23.29;68.53;100022.84;4901419;29;45542;-66
2022/09/14 03:36:53;;;;;;;;;4.00;4.00;;;;;23.29;68.58;100019.28;4903246;29;45428;-66
2022/09/14 03:39:18;;;;;;;;;2.25;2.25;;;;;23.26;68.70;100005.97;4904518;29;45305;-66
2022/09/14 03:41:44;;;;;;;;;4.25;4.00;;;;;23.27;68.51;100013.97;4902988;29;45588;-66
2022/09/14 03:44:09;;;;;;;;;4.50;4.50;;;;;23.25;68.49;100026.88;4902514;29;45236;-66
2022/09/14 03:46:34;;;;;;;;;5.25;4.00;;;;;23.24;68.71;100019.72;4887364;29;45559;-66
2022/09/14 03:49:00;;;;;;;;;5.50;5.00;;;;;23.20;68.62;100009.28;4902450;29;45434;-66
2022/09/14 03:51:25;;;;;;;;;4.75;4.75;;;;;23.22;68.65;100019.03;4904001;29;46251;-66
2022/09/14 03:53:51;;;;;;;;;7.00;4.00;;;;;23.20;68.64;100026.44;4902822;29;45341;-66
2022/09/14 03:56:18;;;;;;;;;4.00;4.00;;;;;23.20;68.54;100033.78;4904175;29;45482;-66
2022/09/14 03:58:45;;;;;;;;;6.00;5.00;;;;;23.19;68.37;100035.66;4902603;29;45456;-66
2022/09/14 04:01:14;;;;;;;;;4.25;4.25;;;;;23.20;68.33;100031.91;4903858;29;45525;-66
2022/09/14 04:03:40;;;;;;;;;4.00;4.00;;;;;23.17;68.74;100021.34;4896388;29;45688;-66
2022/09/14 04:06:07;;;;;;;;;4.50;4.00;;;;;23.20;68.84;100021.00;4897975;29;45511;-66
2022/09/14 04:08:34;;;;;;;;;4.50;4.50;;;;;23.18;68.63;100012.13;4903144;29;45253;-66
2022/09/14 04:11:05;;;;;;;;;3.00;3.00;;;;;23.17;68.48;100010.44;4902008;29;48060;-66
2022/09/14 04:13:30;;;;;;;;;6.75;5.50;;;;;23.15;68.71;100006.13;4904056;28;46905;-66
2022/09/14 04:15:58;;;;;;;;;6.50;3.50;;;;;23.11;68.50;100001.00;4896003;29;48899;-66
2022/09/14 04:18:24;;;;;;;;;4.00;4.00;;;;;23.12;68.50;100001.84;4892163;29;45502;-66
2022/09/14 04:20:56;;;;;;;;;2.50;2.50;;;;;23.06;68.62;99996.97;4903514;28;48450;-66
2022/09/14 04:23:21;;;;;;;;;3.25;3.25;;;;;23.07;68.89;99996.88;4902703;29;45481;-66
2022/09/14 04:25:47;;;;;;;;;4.75;4.75;;;;;23.06;68.55;99994.25;4886057;28;45573;-66
2022/09/14 04:28:12;;;;;;;;;5.25;4.75;;;;;23.05;68.75;99987.09;4902703;29;45378;-66
2022/09/14 04:30:37;;;;;;;;;5.00;4.00;;;;;23.05;68.60;99989.81;4902851;29;46504;-66
2022/09/14 04:33:03;;;;;;;;;3.25;3.25;;;;;23.07;68.64;99999.59;4902325;29;45332;-66
2022/09/14 04:35:28;;;;;;;;;4.75;3.50;;;;;23.03;68.81;99983.66;4898031;29;45472;-66
2022/09/14 04:37:53;;;;;;;;;5.25;4.75;;;;;23.06;68.71;99991.53;4903434;29;45842;-66
2022/09/14 04:40:20;;;;;;;;;5.00;3.75;;;;;23.05;68.67;99987.94;4903459;29;45456;-66
2022/09/14 04:42:46;;;;;;;;;2.25;2.25;;;;;23.03;68.99;99989.09;4902238;29;45566;-66
2022/09/14 04:45:11;;;;;;;;;6.00;5.75;;;;;23.01;68.90;99989.25;4895542;29;45527;-66
2022/09/14 04:47:37;;;;;;;;;4.50;4.50;;;;;22.97;68.76;99996.00;4898102;29;45515;-67
2022/09/14 04:50:03;;;;;;;;;6.25;4.75;;;;;23.00;68.78;99997.56;4902570;29;45838;-66
2022/09/14 04:52:29;;;;;;;;;4.50;3.50;;;;;22.93;68.93;99995.41;4901910;29;45457;-66
2022/09/14 04:54:54;;;;;;;;;8.75;6.50;;;;;22.89;68.97;99974.97;4901953;29;45431;-66
2022/09/14 04:57:19;;;;;;;;;5.00;4.00;;;;;22.89;68.70;99971.41;4903101;29;45482;-66
2022/09/14 04:59:45;;;;;;;;;5.75;4.00;;;;;22.97;69.13;99989.69;4902926;29;46269;-66
2022/09/14 05:02:10;;;;;;;;;5.25;5.25;;;;;22.93;68.94;99983.69;4903313;29;48328;-66
2022/09/14 05:04:35;;;;;;;;;7.50;6.00;;;;;22.93;69.18;99976.38;4887406;28;45594;-66
2022/09/14 05:07:01;;;;;;;;;6.75;3.50;;;;;22.87;69.33;99973.38;4899964;29;45552;-66
2022/09/14 05:09:26;;;;;;;;;3.50;3.50;;;;;22.90;69.09;99978.53;4902351;29;45428;-66
2022/09/14 05:11:51;;;;;;;;;6.25;4.50;;;;;22.84;69.18;99965.53;4902840;29;45520;-66
2022/09/14 05:14:17;;;;;;;;;3.50;3.50;;;;;22.88;69.07;99973.25;4904628;28;45383;-66
2022/09/14 05:16:43;;;;;;;;;5.50;5.00;;;;;22.87;69.08;99968.81;4902119;28;45311;-66
2022/09/14 05:19:12;;;;;;;;;3.00;3.00;;;;;22.82;69.22;99959.38;4902630;28;45472;-66
2022/09/14 05:21:38;;;;;;;;;3.25;3.25;;;;;22.76;68.98;99939.91;4885638;29;45469;-66
2022/09/14 05:24:10;;;;;;;;;4.00;3.00;;;;;22.83;69.46;99961.94;4899164;29;45467;-66
2022/09/14 05:26:36;;;;;;;;;5.25;4.75;;;;;22.79;69.05;99963.25;4901540;28;45628;-66
2022/09/14 05:29:01;;;;;;;;;4.00;4.00;;;;;22.83;69.21;99967.38;4902697;29;45499;-66
2022/09/14 05:31:28;;;;;;;;;4.50;4.00;;;;;22.82;69.12;99973.84;4885539;29;45555;-66
2022/09/14 05:33:54;;;;;;;;;5.00;5.00;;;;;22.75;69.17;99957.25;4900997;29;45408;-66
2022/09/14 05:36:19;;;;;;;;;5.75;4.00;;;;;22.78;69.13;99955.25;4901023;29;45289;-66
2022/09/14 05:38:45;;;;;;;;;4.00;4.00;;;;;22.79;69.39;99957.81;4902471;29;46121;-66
2022/09/14 05:41:12;;;;;;;;;5.00;3.50;;;;;22.78;69.11;99953.38;4902936;29;45241;-66
2022/09/14 05:43:39;;;;;;;;;4.25;4.00;;;;;22.77;69.04;99948.97;4901539;29;45416;-66
2022/09/14 05:46:07;;;;;;;;;2.75;2.75;;;;;22.84;69.09;99971.84;4899812;29;45536;-66
2022/09/14 05:48:34;;;;;;;;;6.00;4.00;;;;;22.81;69.23;99974.00;4901928;29;45464;-66
2022/09/14 05:51:01;;;;;;;;;4.25;4.25;;;;;22.80;68.88;99989.44;4902468;29;45349;-66
2022/09/14 05:53:27;;;;;;;;;7.50;6.00;;;;;22.78;69.23;99982.44;4878745;29;45305;-66
2022/09/14 05:56:07;;;;;;;;;5.25;5.25;;;;;22.80;69.53;99983.16;4900117;29;45762;-66
2022/09/14 05:58:33;;;;;;;;;5.00;5.00;;;;;22.76;69.30;99983.44;4899992;29;47057;-66
2022/09/14 06:01:23;;;;;;;;;4.00;4.00;;;;;22.77;69.43;99973.44;4884973;29;45455;-66
2022/09/14 06:03:51;;;;;;;;;5.25;5.00;;;;;22.78;69.86;99996.06;4894551;29;45442;-66
2022/09/14 06:06:18;;;;;;;;;6.00;5.00;;;;;22.77;69.54;99995.22;4896174;28;45697;-66
2022/09/14 06:08:44;;;;;;;;;7.00;6.00;;;;;22.77;69.69;99987.03;4902105;29;45397;-66
2022/09/14 06:11:13;;;;;;;;;6.00;6.00;;;;;22.73;69.66;99974.72;4902007;29;45845;-66
2022/09/14 06:13:39;;;;;;;;;5.00;5.00;;;;;22.76;69.28;99979.88;4905323;28;45477;-66
2022/09/14 06:16:07;;;;;;;;;6.25;5.00;;;;;22.74;69.88;99982.75;4899912;29;45561;-66
2022/09/14 06:18:34;;;;;;;;;6.75;6.25;;;;;22.71;69.48;99963.97;4898415;28;47270;-67
2022/09/14 06:21:01;;;;;;;;;6.25;6.25;;;;;22.72;70.02;99973.00;4902009;29;45293;-66
2022/09/14 06:23:27;;;;;;;;;8.25;6.00;;;;;22.72;69.91;99970.28;4903050;29;45434;-66
2022/09/14 06:25:55;;;;;;;;;7.00;5.00;;;;;22.76;70.02;99974.44;4898058;29;45488;-66
2022/09/14 06:28:21;;;;;;;;;5.25;5.25;;;;;22.74;69.92;100000.94;4903979;29;45511;-66
2022/09/14 06:30:48;;;;;;;;;6.00;6.00;;;;;22.71;69.76;99991.19;4901007;29;45451;-75
2022/09/14 06:33:14;;;;;;;;;5.00;5.00;;;;;22.53;70.34;99966.59;4886845;28;45626;-74
2022/09/14 06:35:41;;;;;;;;;7.25;6.25;;;;;22.53;69.84;99971.19;4897600;28;45443;-75
2022/09/14 06:38:07;;;;;;;;;10.25;7.75;;;;;22.64;70.13;99984.63;4903869;29;45360;-76
2022/09/14 06:40:32;;;;;;;;;6.00;5.25;;;;;22.45;70.17;99952.88;4908612;28;45364;-76
2022/09/14 06:43:01;;;;;;;;;9.50;6.75;;;;;22.34;70.17;99928.59;4902235;28;45483;-76
2022/09/14 06:45:28;;;;;;;;;4.25;4.25;;;;;22.67;69.99;99981.63;4882224;29;46108;-77
2022/09/14 06:47:54;;;;;;;;;7.25;6.00;;;;;22.68;70.23;99991.47;4884474;29;47472;-76
2022/09/14 06:50:19;;;;;;;;;7.00;6.00;;;;;22.57;69.85;99973.47;4887614;29;45853;-77
2022/09/14 06:52:44;;;;;;;;;8.25;7.25;;;;;22.48;70.11;99962.59;4914156;28;45428;-76
2022/09/14 06:55:10;;;;;;;;;9.75;7.25;;;;;22.61;70.60;99982.19;4903982;29;45558;-74
2022/09/14 06:57:36;;;;;;;;;7.00;6.25;;;;;22.66;70.35;100000.81;4904527;28;46110;-76
2022/09/14 07:00:03;;;;;;;;;10.00;7.50;;;;;22.68;70.13;100001.50;4885969;29;45503;-70
2022/09/14 07:02:28;;;;;;;;;7.00;7.00;;;;;22.57;70.55;99978.91;4884548;29;45597;-74
2022/09/14 07:04:54;;;;;;;;;8.50;7.00;;;;;22.69;70.84;100004.09;4892018;28;45429;-74
2022/09/14 07:07:19;;;;;;;;;5.25;5.00;;;;;22.68;70.62;99998.78;4867179;29;47287;-74
2022/09/14 07:09:50;;;;;;;;;6.00;6.00;;;;;22.61;70.09;99984.06;4886968;29;45808;-74
2022/09/14 07:12:18;;;;;;;;;7.00;7.00;;;;;22.42;70.44;99946.88;4901117;28;45241;-74
2022/09/14 07:14:44;;;;;;;;;6.50;5.00;;;;;22.46;70.48;99953.75;4904989;28;45584;-76
2022/09/14 07:17:09;;;;;;;;;7.25;6.00;;;;;22.53;70.72;99969.31;4907804;28;46012;-76
2022/09/14 07:19:35;;;;;;;;;8.00;8.00;;;;;22.53;70.17;99966.59;4902871;28;45365;-78
2022/09/14 07:22:01;;;;;;;;;7.00;5.75;;;;;22.53;71.10;99973.91;4881107;29;45618;-74
2022/09/14 07:24:26;;;;;;;;;7.00;7.00;;;;;22.61;70.81;99990.34;4903794;29;45523;-75
2022/09/14 07:26:51;;;;;;;;;11.25;8.75;;;;;22.53;70.83;99985.63;4902994;28;46029;-74
2022/09/14 07:29:18;;;;;;;;;6.75;6.75;;;;;22.70;70.63;100007.66;4903302;28;45462;-74
2022/09/14 07:31:49;;;;;;;;;5.50;5.25;;;;;22.51;70.58;99974.03;4904038;29;45361;-74
2022/09/14 07:34:15;;;;;;;;;8.00;6.75;;;;;22.70;70.76;99999.50;4903064;29;45485;-75
2022/09/14 07:36:41;;;;;;;;;9.75;7.75;;;;;22.75;71.00;100008.06;4902877;29;46229;-74
2022/09/14 07:39:10;;;;;;;;;7.25;7.25;;;;;22.70;71.05;100000.38;4904118;29;45913;-74
2022/09/14 07:41:36;;;;;;;;;8.00;6.00;;;;;22.71;70.55;100006.66;4884273;29;45463;-74
2022/09/14 07:44:03;;;;;;;;;7.00;6.25;;;;;22.64;70.57;99994.66;4901958;29;45430;-74
2022/09/14 07:46:32;;;;;;;;;6.00;6.00;;;;;22.69;70.64;100004.09;4902812;29;46898;-73
2022/09/14 07:49:00;;;;;;;;;5.00;5.00;;;;;22.77;70.38;100014.25;4903057;28;45340;-74
2022/09/14 07:51:27;;;;;;;;;9.25;8.00;;;;;22.81;70.78;100018.38;4899714;28;45475;-74
2022/09/14 07:53:53;;;;;;;;;8.25;7.00;;;;;22.86;71.00;100035.13;4903375;29;45582;-74
2022/09/14 07:56:20;;;;;;;;;7.75;7.75;;;;;22.76;71.06;100024.25;4901778;29;46464;-74
2022/09/14 07:58:46;;;;;;;;;7.75;7.75;;;;;22.82;70.65;100038.28;4900813;29;45656;-74
2022/09/14 08:01:22;;;;;;;;;9.50;7.50;;;;;22.84;70.94;100044.44;4903046;29;45540;-75
2022/09/14 08:03:52;;;;;;;;;8.50;8.00;;;;;22.81;71.02;100033.84;4903501;29;45447;-76
2022/09/14 08:06:27;;;;;;;;;8.75;8.25;;;;;22.81;70.97;100031.13;4884423;29;47371;-74
2022/09/14 08:08:56;;;;;;;;;8.75;8.25;;;;;22.68;70.88;100009.66;4900878;28;45512;-73
2022/09/14 08:11:28;;;;;;;;;8.50;8.00;;;;;23.01;70.79;100059.16;4884131;29;45490;-70
2022/09/14 08:14:13;;;;;;;;;7.00;7.00;;;;;22.79;70.69;100025.84;4880874;29;45623;-72
2022/09/14 08:16:39;;;;;;;;;6.00;4.75;;;;;22.77;70.88;100025.13;4886148;29;47542;-72
2022/09/14 08:19:09;;;;;;;;;9.75;8.00;;;;;23.07;70.60;100081.25;4902748;28;45435;-72
2022/09/14 08:21:35;;;;;;;;;7.50;6.00;;;;;22.97;70.19;100065.88;4902334;28;45414;-72
2022/09/14 08:24:03;;;;;;;;;6.75;5.00;;;;;23.01;70.11;100075.50;4885075;29;45577;-72
2022/09/14 08:26:43;;;;;;;;;;;;;;;;;;;;;
2022/09/14 08:29:20;;;;;;;;;;;;;;;;;;;;;
2022/09/14 08:31:57;;;;;;;;;;;;;;;;;;;;;
2022/09/14 08:34:23;;;;;;;;;7.50;7.25;;;;;22.81;69.82;100048.31;4894630;28;72102;-74
2022/09/14 08:36:48;;;;;;;;;8.75;8.75;;;;;23.08;69.98;100085.66;4881905;29;47030;-74
2022/09/14 08:39:19;;;;;;;;;9.25;7.50;;;;;23.03;70.08;100073.47;4902089;29;45777;-72
2022/09/14 08:42:38;;;;;;;;;;;;;;;;;;;;;
2022/09/14 08:45:27;;;;;;;;;7.50;7.50;;;;;23.09;69.83;100070.22;4896245;29;71458;-73
2022/09/14 08:47:53;;;;;;;;;8.75;7.75;;;;;23.12;69.69;100067.16;4885304;29;46929;-74
2022/09/14 08:50:20;;;;;;;;;5.00;5.00;;;;;23.18;70.10;100082.91;4900802;29;45487;-73
2022/09/14 08:52:48;;;;;;;;;6.75;6.75;;;;;23.24;69.87;100089.66;4899827;28;45603;-73
2022/09/14 08:55:22;;;;;;;;;7.25;7.25;;;;;23.28;69.71;100094.63;4900989;29;45713;-72
2022/09/14 08:58:11;;;;;;;;;5.75;5.75;;;;;23.09;69.44;100071.06;4892610;29;46127;-73
2022/09/14 09:00:43;;;;;;;;;7.25;7.25;;;;;23.02;69.63;100061.75;4882476;29;47610;-73
2022/09/14 09:04:03;;;;;;;;;6.25;6.25;;;;;23.29;69.75;100109.97;4900765;29;45557;-73
2022/09/14 09:07:20;;;;;;;;;6.00;5.50;;;;;23.29;69.66;100101.81;4901027;29;46212;-73
2022/09/14 09:09:48;;;;;;;;;6.00;5.00;;;;;23.17;69.66;100078.50;4900050;29;45614;-73
2022/09/14 09:12:26;;;;;;;;;6.75;6.75;;;;;23.33;69.86;100104.25;4885913;29;45576;-74
2022/09/14 09:15:01;;;;;;;;;8.00;6.50;;;;;23.13;69.83;100077.91;4885190;29;45399;-73
2022/09/14 09:17:33;;;;;;;;;6.25;6.25;;;;;23.26;70.06;100085.75;4899192;29;45744;-73
2022/09/14 09:20:07;;;;;;;;;7.25;6.00;;;;;23.45;69.70;100113.94;4889257;29;47271;-73
2022/09/14 09:22:44;;;;;;;;;9.25;7.00;;;;;23.47;69.24;100099.19;4882585;29;45675;-73
2022/09/14 09:25:18;;;;;;;;;9.00;7.00;;;;;23.46;69.12;100099.31;4902203;29;45420;-73
2022/09/14 09:27:44;;;;;;;;;6.00;6.00;;;;;23.33;69.21;100077.00;4877934;29;45688;-73
2022/09/14 09:30:14;;;;;;;;;5.75;4.25;;;;;23.55;68.81;100109.31;4882350;29;48057;-73
2022/09/14 09:32:39;;;;;;;;;6.00;6.00;;;;;23.36;69.05;100074.84;4895738;29;45540;-73
2022/09/14 09:35:05;;;;;;;;;7.75;6.25;;;;;23.60;68.98;100097.97;4901330;29;45353;-74
2022/09/14 09:37:36;;;;;;;;;5.00;5.00;;;;;23.48;69.07;100081.81;4898103;29;45657;-73
2022/09/14 09:40:13;;;;;;;;;8.00;5.75;;;;;23.66;68.54;100106.41;4900617;29;48224;-73
2022/09/14 09:43:17;;;;;;;;;;;;;;;;;;;;;
2022/09/14 09:45:55;;;;;;;;;10.75;6.50;;;;;23.60;68.37;100081.63;4900982;29;67987;-73
2022/09/14 09:48:30;;;;;;;;;9.00;6.25;;;;;23.76;68.43;100113.69;4884948;29;45706;-73
2022/09/14 09:51:17;;;;;;;;;6.00;6.00;;;;;23.65;68.20;100095.66;4900953;29;46361;-73
2022/09/14 09:54:11;;;;;;;;;6.50;6.00;;;;;23.70;68.37;100087.03;4898331;29;45684;-73
2022/09/14 09:56:59;;;;;;;;;10.00;6.00;;;;;23.65;67.75;100072.00;4894969;29;45556;-73
2022/09/14 09:59:34;;;;;;;;;7.50;6.00;;;;;23.75;68.23;100073.81;4893285;29;45436;-73
2022/09/14 10:02:20;;;;;;;;;7.25;7.25;;;;;23.94;67.75;100092.84;4897147;29;47991;-73
2022/09/14 10:05:08;;;;;;;;;4.50;4.50;;;;;23.81;67.26;100057.72;4898340;29;45813;-73
2022/09/14 10:07:37;;;;;;;;;5.25;5.25;;;;;23.83;67.10;100050.28;4880700;29;45489;-73
2022/09/14 10:10:06;;;;;;;;;7.25;6.25;;;;;23.94;67.45;100057.41;4898725;29;45464;-74
2022/09/14 10:12:32;;;;;;;;;7.00;6.25;;;;;23.93;66.95;100057.56;4898472;28;45639;-74
2022/09/14 10:15:15;;;;;;;;;3.25;3.25;;;;;23.98;66.52;100057.94;4901531;29;45780;-74
2022/09/14 10:18:10;;;;;;;;;3.75;3.75;;;;;23.95;66.85;100042.75;4898689;29;45675;-74
2022/09/14 10:20:38;;;;;;;;;5.00;5.00;;;;;24.01;66.27;100042.13;4896044;28;45431;-74
2022/09/14 10:23:19;;;;;;;;;5.00;5.00;;;;;24.19;66.27;100074.00;4897300;28;48573;-74
2022/09/14 10:25:48;;;;;;;;;3.75;3.75;;;;;24.14;65.55;100060.84;4898659;28;45571;-74
2022/09/14 10:28:25;;;;;;;;;3.00;3.00;;;;;23.98;65.28;100030.69;4893596;29;45594;-74
2022/09/14 10:30:59;;;;;;;;;4.25;3.00;;;;;24.12;65.24;100037.47;4892262;29;45599;-74
2022/09/14 10:33:25;;;;;;;;;4.75;3.25;;;;;24.11;64.41;100036.63;4883506;29;47571;-75
2022/09/14 10:36:07;;;;;;;;;3.25;3.25;;;;;24.27;64.19;100049.53;4896644;29;45389;-72
2022/09/14 10:38:36;;;;;;;;;3.50;3.00;;;;;24.32;63.37;100049.09;4895469;29;46175;-72
2022/09/14 10:41:16;;;;;;;;;4.00;3.00;;;;;24.35;64.25;100033.25;4898121;29;46407;-72
2022/09/14 10:43:47;;;;;;;;;4.50;4.50;;;;;24.38;64.51;100027.50;4900383;29;45354;-72
2022/09/14 10:46:20;;;;;;;;;6.00;5.00;;;;;24.43;63.85;100027.03;4900356;29;45567;-74
2022/09/14 10:49:18;;;;;;;;;3.75;3.75;;;;;24.48;63.62;100032.88;4900261;29;45531;-74
2022/09/14 10:51:49;;;;;;;;;3.25;3.25;;;;;24.52;63.62;100030.69;4898402;29;45638;-74
2022/09/14 10:54:30;;;;;;;;;3.75;3.50;;;;;24.57;63.67;100025.66;4882449;29;47533;-74
2022/09/14 10:57:02;;;;;;;;;1.75;1.50;;;;;24.59;62.82;100016.31;4899646;29;45757;-74
2022/09/14 11:00:11;;;;;;;;;3.50;2.25;;;;;24.55;62.28;99997.66;4898608;29;45305;-74
2022/09/14 11:02:55;;;;;;;;;2.50;2.50;;;;;24.67;61.93;100015.50;4878102;29;45618;-74
2022/09/14 11:05:37;;;;;;;;;1.25;1.25;;;;;24.69;60.72;100008.03;4898347;28;46105;-74
2022/09/14 11:08:16;;;;;;;;;2.00;1.25;;;;;24.70;60.17;100012.44;4896299;29;45550;-77
2022/09/14 11:11:04;;;;;;;;;2.75;2.00;;;;;24.72;59.21;100012.28;4899315;29;45493;-77
2022/09/14 11:14:07;;;;;;;;;3.75;2.75;;;;;24.73;59.54;100006.69;4903172;28;45534;-77
2022/09/14 11:17:00;;;;;;;;;1.25;1.25;;;;;24.73;59.07;100005.81;4903650;29;45771;-77
2022/09/14 11:19:41;;;;;;;;;1.00;1.00;;;;;24.73;59.01;100001.22;4902822;28;45639;-76
2022/09/14 11:22:45;;;;;;;;;2.75;2.00;;;;;24.80;59.54;100008.78;4903947;29;45352;-77
2022/09/14 11:25:28;;;;;;;;;2.50;2.00;;;;;24.86;60.67;100006.25;4898508;29;45265;-76
2022/09/14 11:28:16;;;;;;;;;2.75;2.75;;;;;24.92;61.25;100005.59;4896663;29;46272;-77
2022/09/14 11:30:46;;;;;;;;;3.25;3.00;;;;;24.98;60.56;100004.13;4896500;29;45600;-75
2022/09/14 11:33:42;;;;;;;;;3.00;2.75;;;;;25.06;60.91;100012.38;4899678;29;45660;-73
2022/09/14 11:36:17;;;;;;;;;2.00;2.00;;;;;25.10;60.11;100013.75;4860046;29;45478;-73
2022/09/14 11:38:48;;;;;;;;;2.00;1.75;;;;;25.13;59.15;100018.88;4896709;29;46435;-75
2022/09/14 11:41:16;;;;;;;;;1.00;1.00;;;;;25.14;58.92;100020.59;4900760;29;45641;-78
2022/09/14 11:44:00;;;;;;;;;2.00;2.00;;;;;25.13;58.33;100012.56;4899869;29;45482;-78
2022/09/14 11:47:04;;;;;;;;;1.25;1.25;;;;;25.19;58.79;100022.81;4897598;29;45758;-76
2022/09/14 11:49:33;;;;;;;;;1.00;1.00;;;;;25.20;57.88;100019.09;4818529;29;46573;-75
2022/09/14 11:52:20;;;;;;;;;0.25;0.25;;;;;25.25;57.58;100030.38;4885845;29;45665;-75
2022/09/14 11:54:47;;;;;;;;;1.00;1.00;;;;;25.26;57.28;100026.69;4898745;29;45717;-76
2022/09/14 11:57:28;;;;;;;;;1.00;1.00;;;;;25.21;56.24;100011.75;4899434;28;45535;-76
2022/09/14 11:59:56;;;;;;;;;3.25;1.00;;;;;25.28;57.08;100023.78;4881098;29;47003;-72
2022/09/14 12:02:22;;;;;;;;;2.00;2.00;;;;;25.29;57.68;100025.47;4898933;29;45371;-72
2022/09/14 12:05:06;;;;;;;;;3.00;2.00;;;;;25.32;57.76;100016.97;4895636;28;45413;-73
2022/09/14 12:07:46;;;;;;;;;1.00;1.00;;;;;25.33;57.25;100021.41;4899667;29;45860;-72
2022/09/14 12:10:14;;;;;;;;;1.25;1.25;;;;;25.33;56.38;100018.69;4898789;29;46216;-73
2022/09/14 12:12:41;;;;;;;;;1.00;1.00;;;;;25.33;56.43;100015.94;4900615;28;45666;-76
2022/09/14 12:15:15;;;;;;;;;1.75;1.75;;;;;25.36;56.90;100012.91;4881121;29;45329;-75
2022/09/14 12:17:42;;;;;;;;;1.00;1.00;;;;;25.29;56.68;100006.34;4896371;29;45542;-74
2022/09/14 12:20:39;;;;;;;;;1.75;1.75;;;;;25.39;57.17;100014.44;4899161;28;47281;-77
2022/09/14 12:23:11;;;;;;;;;1.50;1.50;;;;;25.42;57.64;100020.41;4877977;29;45551;-74
2022/09/14 12:25:38;;;;;;;;;1.00;1.00;;;;;25.45;56.73;100011.06;4901158;28;45459;-75
2022/09/14 12:28:38;;;;;;;;;2.00;2.00;;;;;25.45;56.85;100011.91;4898363;29;45625;-76
2022/09/14 12:31:03;;;;;;;;;2.50;2.00;;;;;25.47;57.13;100006.28;4897009;29;46092;-79
2022/09/14 12:33:32;;;;;;;;;1.25;1.25;;;;;25.48;57.87;100008.84;4884116;29;45603;-79
2022/09/14 12:36:04;;;;;;;;;4.00;3.00;;;;;25.52;57.31;100002.00;4902793;29;45567;-78
2022/09/14 12:38:30;;;;;;;;;2.00;0.25;;;;;25.56;56.72;99998.97;4883624;29;46135;-79
2022/09/14 12:41:00;;;;;;;;;1.00;1.00;;;;;25.57;56.07;99987.88;4895355;28;46164;-79
2022/09/14 12:43:32;;;;;;;;;0.25;0.25;;;;;25.58;55.35;99989.59;4900764;29;45433;-79
2022/09/14 12:46:00;;;;;;;;;1.25;1.25;;;;;25.59;55.13;99994.00;4891558;28;45540;-79
2022/09/14 12:48:47;;;;;;;;;2.50;2.00;;;;;25.59;55.56;99984.97;4901979;28;45630;-79
2022/09/14 12:54:08;;;;;;;;;0.25;0.25;;;;;25.61;56.16;99978.34;4900391;29;45514;-79